sensor_id;sensor_type;location;lat;lon;timestamp;P1;durP1;ratioP1;P2;durP2;ratioP2
14021;SDS011;7086;48.116;11.580;2023-02-01T00:00:55;2.97;;;2.78;;
14021;SDS011;7086;48.116;11.580;2023-02-01T00:03:23;2.47;;;2.35;;
14021;SDS011;7086;48.116;11.580;2023-02-01T00:06:06;2.97;;;2.63;;
14021;SDS011;7086;48.116;11.580;2023-02-01T00:08:48;2.55;;;2.42;;
14021;SDS011;7086;48.116;11.580;2023-02-01T00:11:33;2.80;;;2.60;;
14021;SDS011;7086;48.116;11.580;2023-02-01T00:14:06;3.05;;;2.63;;
14021;SDS011;7086;48.116;11.580;2023-02-01T00:16:48;3.15;;;2.88;;
14021;SDS011;7086;48.116;11.580;2023-02-01T00:19:16;5.07;;;2.55;;
14021;SDS011;7086;48.116;11.580;2023-02-01T00:21:45;2.83;;;2.53;;
14021;SDS011;7086;48.116;11.580;2023-02-01T00:24:13;2.38;;;2.22;;
14021;SDS011;7086;48.116;11.580;2023-02-01T00:26:41;2.67;;;2.47;;
14021;SDS011;7086;48.116;11.580;2023-02-01T00:29:12;2.53;;;2.42;;
14021;SDS011;7086;48.116;11.580;2023-02-01T00:31:43;2.58;;;2.40;;
14021;SDS011;7086;48.116;11.580;2023-02-01T00:34:11;3.10;;;2.40;;
14021;SDS011;7086;48.116;11.580;2023-02-01T00:36:41;2.35;;;2.15;;
14021;SDS011;7086;48.116;11.580;2023-02-01T00:39:12;2.60;;;2.50;;
14021;SDS011;7086;48.116;11.580;2023-02-01T00:41:40;2.55;;;2.35;;
14021;SDS011;7086;48.116;11.580;2023-02-01T00:44:07;3.20;;;3.00;;
14021;SDS011;7086;48.116;11.580;2023-02-01T00:46:49;2.70;;;2.60;;
14021;SDS011;7086;48.116;11.580;2023-02-01T00:49:31;2.80;;;2.60;;
14021;SDS011;7086;48.116;11.580;2023-02-01T00:52:10;2.50;;;2.28;;
14021;SDS011;7086;48.116;11.580;2023-02-01T00:54:37;3.22;;;2.92;;
14021;SDS011;7086;48.116;11.580;2023-02-01T00:57:04;3.17;;;2.70;;
14021;SDS011;7086;48.116;11.580;2023-02-01T00:59:32;2.70;;;2.50;;
14021;SDS011;7086;48.116;11.580;2023-02-01T01:02:01;2.97;;;2.78;;
14021;SDS011;7086;48.116;11.580;2023-02-01T01:04:43;2.83;;;2.67;;
14021;SDS011;7086;48.116;11.580;2023-02-01T01:07:13;4.03;;;3.00;;
14021;SDS011;7086;48.116;11.580;2023-02-01T01:09:42;3.42;;;3.03;;
14021;SDS011;7086;48.116;11.580;2023-02-01T01:12:09;2.45;;;2.35;;
14021;SDS011;7086;48.116;11.580;2023-02-01T01:14:40;3.67;;;3.33;;
14021;SDS011;7086;48.116;11.580;2023-02-01T01:17:07;3.00;;;2.80;;
14021;SDS011;7086;48.116;11.580;2023-02-01T01:19:34;4.95;;;2.88;;
14021;SDS011;7086;48.116;11.580;2023-02-01T01:22:02;2.97;;;2.78;;
14021;SDS011;7086;48.116;11.580;2023-02-01T01:24:31;3.17;;;2.97;;
14021;SDS011;7086;48.116;11.580;2023-02-01T01:26:58;3.50;;;3.30;;
14021;SDS011;7086;48.116;11.580;2023-02-01T01:29:26;4.60;;;3.80;;
14021;SDS011;7086;48.116;11.580;2023-02-01T01:31:53;4.70;;;4.05;;
14021;SDS011;7086;48.116;11.580;2023-02-01T01:34:20;3.25;;;2.88;;
14021;SDS011;7086;48.116;11.580;2023-02-01T01:36:48;3.45;;;3.25;;
14021;SDS011;7086;48.116;11.580;2023-02-01T01:39:15;5.90;;;3.90;;
14021;SDS011;7086;48.116;11.580;2023-02-01T01:41:44;3.67;;;2.97;;
14021;SDS011;7086;48.116;11.580;2023-02-01T01:47:22;3.00;;;2.83;;
14021;SDS011;7086;48.116;11.580;2023-02-01T01:49:51;3.53;;;3.22;;
14021;SDS011;7086;48.116;11.580;2023-02-01T01:52:19;4.15;;;3.42;;
14021;SDS011;7086;48.116;11.580;2023-02-01T01:54:48;4.30;;;4.00;;
14021;SDS011;7086;48.116;11.580;2023-02-01T01:57:23;5.00;;;3.83;;
14021;SDS011;7086;48.116;11.580;2023-02-01T01:59:59;6.47;;;4.05;;
14021;SDS011;7086;48.116;11.580;2023-02-01T02:03:17;4.50;;;4.20;;
14021;SDS011;7086;48.116;11.580;2023-02-01T02:06:03;4.22;;;3.92;;
14021;SDS011;7086;48.116;11.580;2023-02-01T02:08:44;3.83;;;3.47;;
14021;SDS011;7086;48.116;11.580;2023-02-01T02:11:12;5.00;;;4.25;;
14021;SDS011;7086;48.116;11.580;2023-02-01T02:13:46;4.05;;;3.70;;
14021;SDS011;7086;48.116;11.580;2023-02-01T02:16:37;4.35;;;3.60;;
14021;SDS011;7086;48.116;11.580;2023-02-01T02:19:32;4.75;;;4.32;;
14021;SDS011;7086;48.116;11.580;2023-02-01T02:26:01;4.13;;;3.70;;
14021;SDS011;7086;48.116;11.580;2023-02-01T02:28:54;4.28;;;3.97;;
14021;SDS011;7086;48.116;11.580;2023-02-01T02:32:40;3.70;;;3.50;;
14021;SDS011;7086;48.116;11.580;2023-02-01T02:35:45;4.22;;;3.88;;
14021;SDS011;7086;48.116;11.580;2023-02-01T02:38:22;3.45;;;3.25;;
14021;SDS011;7086;48.116;11.580;2023-02-01T02:40:59;4.10;;;3.80;;
14021;SDS011;7086;48.116;11.580;2023-02-01T02:43:39;6.95;;;4.35;;
14021;SDS011;7086;48.116;11.580;2023-02-01T02:46:33;3.83;;;3.53;;
14021;SDS011;7086;48.116;11.580;2023-02-01T02:49:33;4.22;;;3.85;;
14021;SDS011;7086;48.116;11.580;2023-02-01T02:52:31;4.25;;;3.70;;
14021;SDS011;7086;48.116;11.580;2023-02-01T02:55:22;4.10;;;3.70;;
14021;SDS011;7086;48.116;11.580;2023-02-01T02:57:53;4.07;;;3.65;;
14021;SDS011;7086;48.116;11.580;2023-02-01T03:00:41;3.72;;;3.53;;
14021;SDS011;7086;48.116;11.580;2023-02-01T03:03:28;3.83;;;3.53;;
14021;SDS011;7086;48.116;11.580;2023-02-01T03:06:13;4.07;;;3.78;;
14021;SDS011;7086;48.116;11.580;2023-02-01T03:08:45;3.55;;;3.35;;
14021;SDS011;7086;48.116;11.580;2023-02-01T03:11:12;3.55;;;3.25;;
14021;SDS011;7086;48.116;11.580;2023-02-01T03:13:43;3.75;;;3.45;;
14021;SDS011;7086;48.116;11.580;2023-02-01T03:16:17;3.75;;;3.45;;
14021;SDS011;7086;48.116;11.580;2023-02-01T03:18:52;3.70;;;3.42;;
14021;SDS011;7086;48.116;11.580;2023-02-01T03:21:28;3.90;;;3.60;;
14021;SDS011;7086;48.116;11.580;2023-02-01T03:24:05;3.85;;;3.33;;
14021;SDS011;7086;48.116;11.580;2023-02-01T03:26:41;3.00;;;2.90;;
14021;SDS011;7086;48.116;11.580;2023-02-01T03:29:17;3.80;;;3.47;;
14021;SDS011;7086;48.116;11.580;2023-02-01T03:31:50;3.92;;;3.63;;
14021;SDS011;7086;48.116;11.580;2023-02-01T03:34:18;3.90;;;3.28;;
14021;SDS011;7086;48.116;11.580;2023-02-01T03:36:46;3.80;;;3.55;;
14021;SDS011;7086;48.116;11.580;2023-02-01T03:39:20;3.63;;;3.38;;
14021;SDS011;7086;48.116;11.580;2023-02-01T03:41:59;3.25;;;3.05;;
14021;SDS011;7086;48.116;11.580;2023-02-01T03:44:31;3.67;;;3.40;;
14021;SDS011;7086;48.116;11.580;2023-02-01T03:47:06;3.05;;;2.85;;
14021;SDS011;7086;48.116;11.580;2023-02-01T03:49:40;3.30;;;3.10;;
14021;SDS011;7086;48.116;11.580;2023-02-01T03:52:13;3.40;;;3.03;;
14021;SDS011;7086;48.116;11.580;2023-02-01T03:54:48;3.92;;;2.95;;
14021;SDS011;7086;48.116;11.580;2023-02-01T03:57:19;3.20;;;3.03;;
14021;SDS011;7086;48.116;11.580;2023-02-01T04:00:00;3.42;;;3.22;;
14021;SDS011;7086;48.116;11.580;2023-02-01T04:02:34;3.67;;;3.40;;
14021;SDS011;7086;48.116;11.580;2023-02-01T04:05:01;3.63;;;3.40;;
14021;SDS011;7086;48.116;11.580;2023-02-01T04:07:29;4.07;;;3.78;;
14021;SDS011;7086;48.116;11.580;2023-02-01T04:09:58;3.28;;;3.08;;
14021;SDS011;7086;48.116;11.580;2023-02-01T04:12:25;3.55;;;3.35;;
14021;SDS011;7086;48.116;11.580;2023-02-01T04:14:53;3.38;;;3.17;;
14021;SDS011;7086;48.116;11.580;2023-02-01T04:17:20;3.50;;;3.30;;
14021;SDS011;7086;48.116;11.580;2023-02-01T04:19:48;4.30;;;3.90;;
14021;SDS011;7086;48.116;11.580;2023-02-01T04:22:15;3.30;;;3.00;;
14021;SDS011;7086;48.116;11.580;2023-02-01T04:24:42;4.00;;;3.70;;
14021;SDS011;7086;48.116;11.580;2023-02-01T04:27:11;4.50;;;3.50;;
14021;SDS011;7086;48.116;11.580;2023-02-01T04:29:39;3.50;;;3.30;;
14021;SDS011;7086;48.116;11.580;2023-02-01T04:37:12;4.10;;;3.72;;
14021;SDS011;7086;48.116;11.580;2023-02-01T04:39:40;3.78;;;3.47;;
14021;SDS011;7086;48.116;11.580;2023-02-01T04:42:07;4.97;;;3.22;;
14021;SDS011;7086;48.116;11.580;2023-02-01T04:44:36;4.07;;;3.67;;
14021;SDS011;7086;48.116;11.580;2023-02-01T04:47:06;3.30;;;3.10;;
14021;SDS011;7086;48.116;11.580;2023-02-01T04:49:34;3.65;;;3.28;;
14021;SDS011;7086;48.116;11.580;2023-02-01T04:52:02;3.97;;;3.58;;
14021;SDS011;7086;48.116;11.580;2023-02-01T04:54:30;4.40;;;3.53;;
14021;SDS011;7086;48.116;11.580;2023-02-01T04:56:57;3.88;;;3.58;;
14021;SDS011;7086;48.116;11.580;2023-02-01T04:59:25;4.30;;;4.00;;
14021;SDS011;7086;48.116;11.580;2023-02-01T05:01:55;6.05;;;4.90;;
14021;SDS011;7086;48.116;11.580;2023-02-01T05:04:24;4.90;;;4.10;;
14021;SDS011;7086;48.116;11.580;2023-02-01T05:07:05;4.13;;;3.80;;
14021;SDS011;7086;48.116;11.580;2023-02-01T05:09:47;3.90;;;3.60;;
14021;SDS011;7086;48.116;11.580;2023-02-01T05:12:25;4.47;;;4.07;;
14021;SDS011;7086;48.116;11.580;2023-02-01T05:15:10;4.68;;;4.28;;
14021;SDS011;7086;48.116;11.580;2023-02-01T05:17:54;3.67;;;3.42;;
14021;SDS011;7086;48.116;11.580;2023-02-01T05:20:31;4.70;;;4.28;;
14021;SDS011;7086;48.116;11.580;2023-02-01T05:23:00;4.55;;;3.92;;
14021;SDS011;7086;48.116;11.580;2023-02-01T05:25:42;4.07;;;3.78;;
14021;SDS011;7086;48.116;11.580;2023-02-01T05:28:10;3.97;;;3.63;;
14021;SDS011;7086;48.116;11.580;2023-02-01T05:30:52;6.20;;;4.78;;
14021;SDS011;7086;48.116;11.580;2023-02-01T05:33:24;5.05;;;4.55;;
14021;SDS011;7086;48.116;11.580;2023-02-01T05:35:53;5.70;;;5.20;;
14021;SDS011;7086;48.116;11.580;2023-02-01T05:38:21;6.20;;;5.60;;
14021;SDS011;7086;48.116;11.580;2023-02-01T05:40:50;5.25;;;4.85;;
14021;SDS011;7086;48.116;11.580;2023-02-01T05:43:20;4.43;;;4.05;;
14021;SDS011;7086;48.116;11.580;2023-02-01T05:45:48;5.18;;;4.78;;
14021;SDS011;7086;48.116;11.580;2023-02-01T05:48:18;4.07;;;3.75;;
14021;SDS011;7086;48.116;11.580;2023-02-01T05:50:55;4.55;;;4.18;;
14021;SDS011;7086;48.116;11.580;2023-02-01T05:53:28;3.55;;;3.30;;
14021;SDS011;7086;48.116;11.580;2023-02-01T05:56:17;3.83;;;3.53;;
14021;SDS011;7086;48.116;11.580;2023-02-01T05:58:52;4.47;;;4.07;;
14021;SDS011;7086;48.116;11.580;2023-02-01T06:01:35;4.88;;;4.18;;
14021;SDS011;7086;48.116;11.580;2023-02-01T06:10:36;4.50;;;4.00;;
14021;SDS011;7086;48.116;11.580;2023-02-01T06:13:18;5.13;;;4.18;;
14021;SDS011;7086;48.116;11.580;2023-02-01T06:16:04;4.10;;;3.75;;
14021;SDS011;7086;48.116;11.580;2023-02-01T06:18:46;4.65;;;4.25;;
14021;SDS011;7086;48.116;11.580;2023-02-01T06:21:32;3.50;;;3.30;;
14021;SDS011;7086;48.116;11.580;2023-02-01T06:27:15;4.13;;;3.70;;
14021;SDS011;7086;48.116;11.580;2023-02-01T06:30:08;4.10;;;3.80;;
14021;SDS011;7086;48.116;11.580;2023-02-01T06:35:42;4.32;;;3.97;;
14021;SDS011;7086;48.116;11.580;2023-02-01T06:38:25;3.97;;;3.75;;
14021;SDS011;7086;48.116;11.580;2023-02-01T06:41:10;4.85;;;4.30;;
14021;SDS011;7086;48.116;11.580;2023-02-01T06:43:38;4.72;;;4.32;;
14021;SDS011;7086;48.116;11.580;2023-02-01T06:46:20;4.55;;;4.07;;
14021;SDS011;7086;48.116;11.580;2023-02-01T06:49:03;3.97;;;3.78;;
14021;SDS011;7086;48.116;11.580;2023-02-01T06:51:58;4.30;;;4.00;;
14021;SDS011;7086;48.116;11.580;2023-02-01T06:54:49;4.18;;;3.80;;
14021;SDS011;7086;48.116;11.580;2023-02-01T22:53:37;6.78;;;2.30;;
14021;SDS011;7086;48.116;11.580;2023-02-01T22:56:19;4.70;;;2.45;;
14021;SDS011;7086;48.116;11.580;2023-02-01T22:59:02;4.60;;;1.90;;
14021;SDS011;7086;48.116;11.580;2023-02-01T23:01:42;7.65;;;2.25;;
14021;SDS011;7086;48.116;11.580;2023-02-01T23:04:25;4.68;;;2.20;;
14021;SDS011;7086;48.116;11.580;2023-02-01T23:07:07;2.83;;;1.70;;
14021;SDS011;7086;48.116;11.580;2023-02-01T23:09:52;6.25;;;2.30;;
14021;SDS011;7086;48.116;11.580;2023-02-01T23:12:23;4.72;;;2.05;;
14021;SDS011;7086;48.116;11.580;2023-02-01T23:15:09;3.72;;;2.05;;
14021;SDS011;7086;48.116;11.580;2023-02-01T23:17:52;5.05;;;2.83;;
14021;SDS011;7086;48.116;11.580;2023-02-01T23:20:25;3.60;;;2.00;;
14021;SDS011;7086;48.116;11.580;2023-02-01T23:22:55;3.40;;;2.00;;
14021;SDS011;7086;48.116;11.580;2023-02-01T23:25:47;5.07;;;2.03;;
14021;SDS011;7086;48.116;11.580;2023-02-01T23:28:17;6.10;;;1.83;;
14021;SDS011;7086;48.116;11.580;2023-02-01T23:31:04;2.97;;;1.83;;
14021;SDS011;7086;48.116;11.580;2023-02-01T23:33:34;3.70;;;2.08;;
14021;SDS011;7086;48.116;11.580;2023-02-01T23:36:05;5.32;;;1.75;;
14021;SDS011;7086;48.116;11.580;2023-02-01T23:38:42;2.90;;;1.92;;
14021;SDS011;7086;48.116;11.580;2023-02-01T23:44:22;2.05;;;1.45;;
14021;SDS011;7086;48.116;11.580;2023-02-01T23:46:57;5.32;;;2.70;;
14021;SDS011;7086;48.116;11.580;2023-02-01T23:49:26;3.53;;;2.20;;
14021;SDS011;7086;48.116;11.580;2023-02-01T23:52:19;3.40;;;1.80;;
14021;SDS011;7086;48.116;11.580;2023-02-01T23:55:07;3.15;;;2.22;;
